aviador You're here:

KART Decoded Metar

WATERTOWN in NY, USA
Report Time2018-05-20 18:56:00
UTC Time2018-05-20 19:31:55
Flight Rules vfr VFR
Wind350° at 06 kt
W.Decomp.*RWY 07: 2.2 kt HW 5.6 kt LCW
RWY 28: 0.8 kt HW 5.9 kt RCW
W.Rank350° ranks 27
Current wind is below 350° avg. (7.2)
Visibility9999 m
Phenomena:N/A
Clouds:Scattered 039 Hf
Expected CloudBase > 3,200 ft AGL from Temp-Dew spread
CeilingNone
Temp19°C (ISA +5)
Dew Point11°C (60% RH)
AAT17.2°C
QNH1017 hPa
Density Alt915 ft
Elevation328 ft
Report Wrong Elevation
Raw Report
KART 201856Z AUTO 35006KT 10SM SCT039 19/11 A3004 RMK AO2 SLP167
T01890106=

Extra information for KART:More info

Metar Taf Metar & Taf Last 4 Metars F.Rules Stats Wind Profile Meteogram Temp Stats Airport Information Weather charts Add Link Nearby VenuesMetar ALERT Operation Metar Decoded Social comments

AIRNAV info for KART